sensor_id;sensor_type;location;lat;lon;timestamp;pressure;altitude;pressure_sealevel;temperature;humidity
64294;BME280;50636;45.596;5.258;2022-07-29T00:00:15;98481.94;;;26.08;34.42
64294;BME280;50636;45.596;5.258;2022-07-29T00:02:40;98493.94;;;26.02;34.39
64294;BME280;50636;45.596;5.258;2022-07-29T00:05:08;98485.06;;;26.02;34.08
64294;BME280;50636;45.596;5.258;2022-07-29T00:07:34;98493.44;;;26.00;34.42
64294;BME280;50636;45.596;5.258;2022-07-29T00:09:59;98491.06;;;25.99;34.41
64294;BME280;50636;45.596;5.258;2022-07-29T00:12:25;98481.09;;;25.99;34.25
64294;BME280;50636;45.596;5.258;2022-07-29T00:14:51;98483.91;;;25.94;34.41
64294;BME280;50636;45.596;5.258;2022-07-29T00:17:17;98487.38;;;25.95;34.29
64294;BME280;50636;45.596;5.258;2022-07-29T00:19:45;98478.88;;;26.01;34.60
64294;BME280;50636;45.596;5.258;2022-07-29T00:22:11;98481.28;;;26.03;34.49
64294;BME280;50636;45.596;5.258;2022-07-29T00:24:36;98490.25;;;25.98;34.53
64294;BME280;50636;45.596;5.258;2022-07-29T00:27:02;98481.22;;;25.94;34.62
64294;BME280;50636;45.596;5.258;2022-07-29T00:29:28;98489.88;;;25.91;34.70
64294;BME280;50636;45.596;5.258;2022-07-29T00:31:53;98486.19;;;25.87;34.64
64294;BME280;50636;45.596;5.258;2022-07-29T00:34:22;98484.53;;;25.77;34.83
64294;BME280;50636;45.596;5.258;2022-07-29T00:37:23;98478.31;;;25.68;34.74
64294;BME280;50636;45.596;5.258;2022-07-29T00:39:49;98477.84;;;25.66;34.89
64294;BME280;50636;45.596;5.258;2022-07-29T00:42:14;98472.75;;;25.64;35.01
64294;BME280;50636;45.596;5.258;2022-07-29T00:44:42;98474.81;;;25.67;35.13
64294;BME280;50636;45.596;5.258;2022-07-29T00:47:09;98470.41;;;25.71;34.93
64294;BME280;50636;45.596;5.258;2022-07-29T00:49:36;98460.69;;;25.76;34.93
64294;BME280;50636;45.596;5.258;2022-07-29T00:52:05;98460.44;;;25.86;35.00
64294;BME280;50636;45.596;5.258;2022-07-29T00:54:31;98451.31;;;25.96;34.72
64294;BME280;50636;45.596;5.258;2022-07-29T00:57:01;98455.31;;;25.98;34.81
64294;BME280;50636;45.596;5.258;2022-07-29T00:59:27;98458.59;;;25.95;34.68
64294;BME280;50636;45.596;5.258;2022-07-29T01:01:54;98458.63;;;25.81;35.14
64294;BME280;50636;45.596;5.258;2022-07-29T01:04:20;98462.56;;;25.75;34.92
64294;BME280;50636;45.596;5.258;2022-07-29T01:06:47;98471.84;;;25.69;35.11
64294;BME280;50636;45.596;5.258;2022-07-29T01:09:15;98464.69;;;25.64;35.11
64294;BME280;50636;45.596;5.258;2022-07-29T01:11:44;98465.63;;;25.60;35.25
64294;BME280;50636;45.596;5.258;2022-07-29T01:14:11;98469.19;;;25.55;35.40
64294;BME280;50636;45.596;5.258;2022-07-29T01:22:42;98461.81;;;25.38;35.70
64294;BME280;50636;45.596;5.258;2022-07-29T01:31:03;98467.63;;;24.76;35.94
64294;BME280;50636;45.596;5.258;2022-07-29T01:33:32;98467.75;;;24.57;36.24
64294;BME280;50636;45.596;5.258;2022-07-29T01:36:40;98460.66;;;24.47;36.47
64294;BME280;50636;45.596;5.258;2022-07-29T01:39:08;98470.22;;;24.54;36.78
64294;BME280;50636;45.596;5.258;2022-07-29T01:44:33;98455.91;;;24.72;36.50
64294;BME280;50636;45.596;5.258;2022-07-29T01:47:07;98455.91;;;24.58;36.63
64294;BME280;50636;45.596;5.258;2022-07-29T01:49:41;98449.44;;;24.45;37.00
64294;BME280;50636;45.596;5.258;2022-07-29T01:52:19;98446.25;;;24.29;37.95
64294;BME280;50636;45.596;5.258;2022-07-29T01:55:02;98456.00;;;24.06;38.34
64294;BME280;50636;45.596;5.258;2022-07-29T01:57:31;98458.97;;;23.91;38.53
64294;BME280;50636;45.596;5.258;2022-07-29T01:59:59;98463.41;;;23.82;39.26
64294;BME280;50636;45.596;5.258;2022-07-29T02:02:26;98457.09;;;23.72;40.31
64294;BME280;50636;45.596;5.258;2022-07-29T02:04:53;98465.38;;;23.57;40.60
64294;BME280;50636;45.596;5.258;2022-07-29T02:07:22;98455.75;;;23.37;41.60
64294;BME280;50636;45.596;5.258;2022-07-29T02:09:50;98458.63;;;23.22;41.38
64294;BME280;50636;45.596;5.258;2022-07-29T02:12:18;98455.81;;;23.13;41.28
64294;BME280;50636;45.596;5.258;2022-07-29T02:14:48;98447.72;;;23.18;41.53
64294;BME280;50636;45.596;5.258;2022-07-29T02:17:21;98445.03;;;23.37;42.25
64294;BME280;50636;45.596;5.258;2022-07-29T02:19:48;98450.06;;;24.09;40.68
64294;BME280;50636;45.596;5.258;2022-07-29T02:22:16;98449.16;;;24.61;39.02
64294;BME280;50636;45.596;5.258;2022-07-29T02:24:44;98444.47;;;24.80;39.42
64294;BME280;50636;45.596;5.258;2022-07-29T02:27:10;98446.72;;;25.15;38.54
64294;BME280;50636;45.596;5.258;2022-07-29T02:29:38;98454.53;;;25.39;38.36
64294;BME280;50636;45.596;5.258;2022-07-29T02:32:06;98453.75;;;25.38;38.42
64294;BME280;50636;45.596;5.258;2022-07-29T02:34:35;98447.75;;;25.41;38.20
64294;BME280;50636;45.596;5.258;2022-07-29T02:37:03;98452.03;;;25.65;38.27
64294;BME280;50636;45.596;5.258;2022-07-29T02:39:30;98456.97;;;25.71;37.44
64294;BME280;50636;45.596;5.258;2022-07-29T02:42:09;98453.59;;;25.43;37.36
64294;BME280;50636;45.596;5.258;2022-07-29T02:44:35;98449.03;;;25.21;37.94
64294;BME280;50636;45.596;5.258;2022-07-29T02:52:18;98449.75;;;24.58;38.60
64294;BME280;50636;45.596;5.258;2022-07-29T02:58:05;98460.38;;;24.02;38.97
64294;BME280;50636;45.596;5.258;2022-07-29T03:00:31;98455.28;;;23.87;39.10
64294;BME280;50636;45.596;5.258;2022-07-29T03:03:03;98456.28;;;23.72;39.55
64294;BME280;50636;45.596;5.258;2022-07-29T03:05:31;98457.66;;;23.69;39.76
64294;BME280;50636;45.596;5.258;2022-07-29T03:08:04;98464.75;;;23.60;39.88
64294;BME280;50636;45.596;5.258;2022-07-29T03:10:32;98465.50;;;23.47;40.02
64294;BME280;50636;45.596;5.258;2022-07-29T03:12:58;98468.06;;;23.38;40.18
64294;BME280;50636;45.596;5.258;2022-07-29T03:15:26;98469.19;;;23.32;40.28
64294;BME280;50636;45.596;5.258;2022-07-29T03:17:52;98477.31;;;23.27;40.30
64294;BME280;50636;45.596;5.258;2022-07-29T03:20:19;98476.28;;;23.23;40.72
64294;BME280;50636;45.596;5.258;2022-07-29T03:25:15;98467.63;;;23.12;42.24
64294;BME280;50636;45.596;5.258;2022-07-29T03:27:41;98469.66;;;22.96;42.90
64294;BME280;50636;45.596;5.258;2022-07-29T03:30:08;98472.56;;;22.76;43.23
64294;BME280;50636;45.596;5.258;2022-07-29T03:32:34;98476.72;;;22.63;43.40
64294;BME280;50636;45.596;5.258;2022-07-29T03:35:00;98478.00;;;22.41;44.11
64294;BME280;50636;45.596;5.258;2022-07-29T03:37:25;98483.81;;;22.19;44.88
64294;BME280;50636;45.596;5.258;2022-07-29T03:39:54;98488.81;;;21.97;45.43
64294;BME280;50636;45.596;5.258;2022-07-29T03:42:23;98480.13;;;21.81;46.19
64294;BME280;50636;45.596;5.258;2022-07-29T03:44:50;98493.69;;;21.89;45.91
64294;BME280;50636;45.596;5.258;2022-07-29T03:47:20;98496.66;;;21.83;46.13
64294;BME280;50636;45.596;5.258;2022-07-29T03:49:50;98511.78;;;21.58;46.37
64294;BME280;50636;45.596;5.258;2022-07-29T03:52:18;98500.94;;;21.39;47.18
64294;BME280;50636;45.596;5.258;2022-07-29T03:54:44;98501.78;;;21.29;47.42
64294;BME280;50636;45.596;5.258;2022-07-29T03:57:11;98506.09;;;21.25;47.83
64294;BME280;50636;45.596;5.258;2022-07-29T03:59:38;98514.09;;;21.20;48.02
64294;BME280;50636;45.596;5.258;2022-07-29T04:02:08;98520.78;;;21.12;47.88
64294;BME280;50636;45.596;5.258;2022-07-29T04:04:35;98518.97;;;21.08;48.43
64294;BME280;50636;45.596;5.258;2022-07-29T04:07:01;98529.38;;;21.04;48.26
64294;BME280;50636;45.596;5.258;2022-07-29T04:09:27;98530.47;;;21.03;48.49
64294;BME280;50636;45.596;5.258;2022-07-29T04:11:52;98522.94;;;21.10;48.63
64294;BME280;50636;45.596;5.258;2022-07-29T04:14:18;98530.69;;;21.17;48.59
64294;BME280;50636;45.596;5.258;2022-07-29T04:16:44;98534.97;;;21.13;48.32
64294;BME280;50636;45.596;5.258;2022-07-29T04:19:09;98544.06;;;21.07;48.49
64294;BME280;50636;45.596;5.258;2022-07-29T04:21:39;98542.97;;;21.08;48.74
64294;BME280;50636;45.596;5.258;2022-07-29T04:24:06;98540.56;;;21.06;48.82
64294;BME280;50636;45.596;5.258;2022-07-29T04:26:32;98543.53;;;21.05;49.02
64294;BME280;50636;45.596;5.258;2022-07-29T04:28:58;98546.47;;;21.03;49.19
64294;BME280;50636;45.596;5.258;2022-07-29T04:31:24;98544.59;;;20.99;49.43
64294;BME280;50636;45.596;5.258;2022-07-29T04:33:49;98546.47;;;20.98;49.62
64294;BME280;50636;45.596;5.258;2022-07-29T04:36:18;98549.94;;;20.99;49.31
64294;BME280;50636;45.596;5.258;2022-07-29T04:38:43;98552.28;;;21.10;48.93
64294;BME280;50636;45.596;5.258;2022-07-29T04:41:09;98558.41;;;21.21;48.78
64294;BME280;50636;45.596;5.258;2022-07-29T04:43:35;98557.78;;;21.40;48.15
64294;BME280;50636;45.596;5.258;2022-07-29T04:46:03;98560.44;;;21.50;48.22
64294;BME280;50636;45.596;5.258;2022-07-29T04:48:31;98557.72;;;21.60;47.79
64294;BME280;50636;45.596;5.258;2022-07-29T04:50:56;98555.75;;;21.76;47.64
64294;BME280;50636;45.596;5.258;2022-07-29T04:53:22;98553.13;;;22.10;46.83
64294;BME280;50636;45.596;5.258;2022-07-29T04:55:48;98553.34;;;22.14;46.21
64294;BME280;50636;45.596;5.258;2022-07-29T04:58:14;98546.72;;;22.06;46.10
64294;BME280;50636;45.596;5.258;2022-07-29T05:00:40;98544.31;;;22.10;46.24
64294;BME280;50636;45.596;5.258;2022-07-29T05:03:05;98550.28;;;22.36;45.74
64294;BME280;50636;45.596;5.258;2022-07-29T05:05:31;98553.97;;;22.40;45.66
64294;BME280;50636;45.596;5.258;2022-07-29T05:07:57;98558.47;;;22.45;45.63
64294;BME280;50636;45.596;5.258;2022-07-29T05:10:23;98563.19;;;22.58;45.32
64294;BME280;50636;45.596;5.258;2022-07-29T05:12:48;98555.06;;;22.68;45.52
64294;BME280;50636;45.596;5.258;2022-07-29T05:15:14;98563.75;;;22.79;45.18
64294;BME280;50636;45.596;5.258;2022-07-29T05:17:40;98564.47;;;22.90;45.03
64294;BME280;50636;45.596;5.258;2022-07-29T05:20:06;98553.13;;;22.98;44.51
64294;BME280;50636;45.596;5.258;2022-07-29T05:22:32;98552.03;;;23.04;44.34
64294;BME280;50636;45.596;5.258;2022-07-29T05:24:58;98552.53;;;23.06;44.62
64294;BME280;50636;45.596;5.258;2022-07-29T05:27:24;98552.63;;;22.96;44.87
64294;BME280;50636;45.596;5.258;2022-07-29T05:29:49;98561.50;;;22.91;44.78
64294;BME280;50636;45.596;5.258;2022-07-29T05:32:15;98563.88;;;22.93;44.78
64294;BME280;50636;45.596;5.258;2022-07-29T05:34:41;98557.06;;;23.06;44.36
64294;BME280;50636;45.596;5.258;2022-07-29T05:37:07;98563.22;;;23.30;43.81
64294;BME280;50636;45.596;5.258;2022-07-29T05:39:33;98570.78;;;23.47;43.92
64294;BME280;50636;45.596;5.258;2022-07-29T05:41:58;98568.97;;;23.62;43.22
64294;BME280;50636;45.596;5.258;2022-07-29T05:44:27;98566.84;;;23.83;43.50
64294;BME280;50636;45.596;5.258;2022-07-29T05:46:52;98581.69;;;24.13;43.52
64294;BME280;50636;45.596;5.258;2022-07-29T05:49:18;98568.72;;;24.34;42.42
64294;BME280;50636;45.596;5.258;2022-07-29T05:51:44;98572.91;;;24.40;42.30
64294;BME280;50636;45.596;5.258;2022-07-29T05:54:09;98578.50;;;24.44;41.79
64294;BME280;50636;45.596;5.258;2022-07-29T05:56:36;98589.00;;;24.40;41.56
64294;BME280;50636;45.596;5.258;2022-07-29T05:59:02;98597.22;;;24.30;41.43
64294;BME280;50636;45.596;5.258;2022-07-29T06:01:28;98591.47;;;24.37;41.02
64294;BME280;50636;45.596;5.258;2022-07-29T06:03:54;98591.91;;;24.44;40.97
64294;BME280;50636;45.596;5.258;2022-07-29T06:06:19;98597.47;;;24.47;40.66
64294;BME280;50636;45.596;5.258;2022-07-29T06:08:45;98600.94;;;24.48;40.48
64294;BME280;50636;45.596;5.258;2022-07-29T06:11:11;98613.59;;;24.47;40.42
64294;BME280;50636;45.596;5.258;2022-07-29T06:13:36;98612.44;;;24.54;40.58
64294;BME280;50636;45.596;5.258;2022-07-29T06:16:02;98613.59;;;24.80;40.22
64294;BME280;50636;45.596;5.258;2022-07-29T06:18:28;98608.34;;;25.03;40.25
64294;BME280;50636;45.596;5.258;2022-07-29T06:20:54;98598.88;;;25.19;39.36
64294;BME280;50636;45.596;5.258;2022-07-29T06:23:20;98606.56;;;25.12;39.41
64294;BME280;50636;45.596;5.258;2022-07-29T06:25:46;98601.69;;;25.14;39.63
64294;BME280;50636;45.596;5.258;2022-07-29T06:28:12;98621.69;;;25.08;39.59
64294;BME280;50636;45.596;5.258;2022-07-29T06:30:38;98624.34;;;24.94;39.53
64294;BME280;50636;45.596;5.258;2022-07-29T06:33:05;98631.97;;;24.73;39.76
64294;BME280;50636;45.596;5.258;2022-07-29T06:35:33;98634.78;;;24.30;41.64
64294;BME280;50636;45.596;5.258;2022-07-29T06:38:01;98634.13;;;24.00;42.31
64294;BME280;50636;45.596;5.258;2022-07-29T06:40:27;98640.38;;;23.71;46.54
64294;BME280;50636;45.596;5.258;2022-07-29T06:43:11;98648.34;;;23.33;48.27
64294;BME280;50636;45.596;5.258;2022-07-29T06:45:37;98637.16;;;23.02;49.57
64294;BME280;50636;45.596;5.258;2022-07-29T06:48:06;98632.72;;;22.87;50.58
64294;BME280;50636;45.596;5.258;2022-07-29T06:50:32;98631.03;;;22.67;51.65
64294;BME280;50636;45.596;5.258;2022-07-29T06:52:58;98634.81;;;22.61;52.12
64294;BME280;50636;45.596;5.258;2022-07-29T06:55:23;98640.38;;;22.99;50.73
64294;BME280;50636;45.596;5.258;2022-07-29T06:57:50;98631.16;;;22.81;50.05
64294;BME280;50636;45.596;5.258;2022-07-29T07:00:15;98643.34;;;22.68;50.45
64294;BME280;50636;45.596;5.258;2022-07-29T07:02:41;98657.56;;;22.64;50.79
64294;BME280;50636;45.596;5.258;2022-07-29T07:05:07;98654.06;;;22.63;50.46
64294;BME280;50636;45.596;5.258;2022-07-29T07:07:33;98641.41;;;22.74;51.23
64294;BME280;50636;45.596;5.258;2022-07-29T07:09:59;98639.44;;;22.85;51.66
64294;BME280;50636;45.596;5.258;2022-07-29T07:12:24;98631.66;;;22.88;51.26
64294;BME280;50636;45.596;5.258;2022-07-29T07:14:50;98623.78;;;22.97;51.02
64294;BME280;50636;45.596;5.258;2022-07-29T07:17:19;98626.91;;;23.58;50.56
64294;BME280;50636;45.596;5.258;2022-07-29T07:19:44;98629.19;;;24.26;48.90
64294;BME280;50636;45.596;5.258;2022-07-29T07:22:10;98622.88;;;24.55;47.63
64294;BME280;50636;45.596;5.258;2022-07-29T07:24:36;98619.31;;;24.60;45.55
64294;BME280;50636;45.596;5.258;2022-07-29T07:27:01;98622.00;;;24.60;44.91
64294;BME280;50636;45.596;5.258;2022-07-29T07:29:27;98610.78;;;24.71;44.45
64294;BME280;50636;45.596;5.258;2022-07-29T07:31:53;98593.91;;;24.85;45.03
64294;BME280;50636;45.596;5.258;2022-07-29T07:34:19;98592.22;;;24.89;45.23
64294;BME280;50636;45.596;5.258;2022-07-29T07:36:45;98585.78;;;25.04;43.53
64294;BME280;50636;45.596;5.258;2022-07-29T07:39:10;98603.25;;;25.15;44.57
64294;BME280;50636;45.596;5.258;2022-07-29T07:41:36;98619.38;;;25.01;46.65
64294;BME280;50636;45.596;5.258;2022-07-29T07:44:02;98631.19;;;24.35;48.65
64294;BME280;50636;45.596;5.258;2022-07-29T07:46:27;98635.44;;;23.60;51.09
64294;BME280;50636;45.596;5.258;2022-07-29T07:48:53;98639.22;;;23.10;52.96
64294;BME280;50636;45.596;5.258;2022-07-29T07:51:19;98640.81;;;22.82;53.77
64294;BME280;50636;45.596;5.258;2022-07-29T07:53:45;98634.03;;;22.61;53.70
64294;BME280;50636;45.596;5.258;2022-07-29T07:56:15;98638.38;;;22.51;54.15
64294;BME280;50636;45.596;5.258;2022-07-29T07:58:41;98641.56;;;22.53;54.03
64294;BME280;50636;45.596;5.258;2022-07-29T08:01:08;98635.00;;;22.41;53.59
64294;BME280;50636;45.596;5.258;2022-07-29T08:03:34;98637.75;;;22.30;54.69
64294;BME280;50636;45.596;5.258;2022-07-29T08:05:59;98634.81;;;22.27;54.82
64294;BME280;50636;45.596;5.258;2022-07-29T08:08:25;98617.50;;;22.14;55.05
64294;BME280;50636;45.596;5.258;2022-07-29T08:10:51;98618.38;;;22.04;54.93
64294;BME280;50636;45.596;5.258;2022-07-29T08:13:18;98618.63;;;22.08;54.87
64294;BME280;50636;45.596;5.258;2022-07-29T08:15:45;98626.31;;;22.14;54.36
64294;BME280;50636;45.596;5.258;2022-07-29T08:18:12;98634.06;;;22.16;53.75
64294;BME280;50636;45.596;5.258;2022-07-29T08:20:38;98641.53;;;22.19;53.27
64294;BME280;50636;45.596;5.258;2022-07-29T08:23:06;98643.09;;;22.30;53.26
64294;BME280;50636;45.596;5.258;2022-07-29T08:25:35;98656.56;;;22.49;53.10
64294;BME280;50636;45.596;5.258;2022-07-29T08:28:01;98670.84;;;22.74;53.03
64294;BME280;50636;45.596;5.258;2022-07-29T08:30:27;98674.31;;;23.09;52.43
64294;BME280;50636;45.596;5.258;2022-07-29T08:32:53;98679.44;;;23.53;50.93
64294;BME280;50636;45.596;5.258;2022-07-29T08:35:20;98696.09;;;23.99;48.62
64294;BME280;50636;45.596;5.258;2022-07-29T08:37:46;98708.19;;;24.34;47.04
64294;BME280;50636;45.596;5.258;2022-07-29T08:40:12;98730.63;;;24.62;46.04
64294;BME280;50636;45.596;5.258;2022-07-29T08:42:40;98733.47;;;24.85;44.64
64294;BME280;50636;45.596;5.258;2022-07-29T08:45:06;98744.09;;;24.95;44.04
64294;BME280;50636;45.596;5.258;2022-07-29T08:47:33;98754.59;;;24.91;43.69
64294;BME280;50636;45.596;5.258;2022-07-29T08:50:02;98760.31;;;24.71;43.70
64294;BME280;50636;45.596;5.258;2022-07-29T08:52:34;98765.50;;;24.43;44.33
64294;BME280;50636;45.596;5.258;2022-07-29T08:55:02;98784.47;;;24.28;45.21
64294;BME280;50636;45.596;5.258;2022-07-29T08:57:28;98789.91;;;24.23;45.34
64294;BME280;50636;45.596;5.258;2022-07-29T08:59:56;98788.97;;;24.08;47.67
64294;BME280;50636;45.596;5.258;2022-07-29T09:02:28;98796.75;;;23.86;50.05
64294;BME280;50636;45.596;5.258;2022-07-29T09:04:56;98798.78;;;23.41;51.63
64294;BME280;50636;45.596;5.258;2022-07-29T09:07:24;98799.81;;;22.71;53.29
64294;BME280;50636;45.596;5.258;2022-07-29T09:09:50;98789.91;;;22.17;54.83
64294;BME280;50636;45.596;5.258;2022-07-29T09:12:16;98810.91;;;21.63;56.85
64294;BME280;50636;45.596;5.258;2022-07-29T09:14:42;98813.03;;;21.15;58.89
64294;BME280;50636;45.596;5.258;2022-07-29T09:17:08;98814.03;;;20.68;60.73
64294;BME280;50636;45.596;5.258;2022-07-29T09:19:36;98810.44;;;20.31;62.53
64294;BME280;50636;45.596;5.258;2022-07-29T09:22:04;98811.63;;;19.98;63.90
64294;BME280;50636;45.596;5.258;2022-07-29T09:24:44;98822.84;;;19.68;66.17
64294;BME280;50636;45.596;5.258;2022-07-29T09:29:58;98843.69;;;19.39;70.55
64294;BME280;50636;45.596;5.258;2022-07-29T09:32:25;98846.88;;;19.41;71.62
64294;BME280;50636;45.596;5.258;2022-07-29T09:35:18;98863.16;;;19.44;74.43
64294;BME280;50636;45.596;5.258;2022-07-29T09:37:44;98851.28;;;19.57;74.72
64294;BME280;50636;45.596;5.258;2022-07-29T09:40:15;98867.28;;;19.62;75.12
64294;BME280;50636;45.596;5.258;2022-07-29T09:42:46;98868.88;;;19.58;75.46
64294;BME280;50636;45.596;5.258;2022-07-29T09:45:25;98870.22;;;19.61;76.85
64294;BME280;50636;45.596;5.258;2022-07-29T09:47:51;98857.94;;;19.60;75.44
64294;BME280;50636;45.596;5.258;2022-07-29T09:50:17;98855.13;;;19.39;75.42
64294;BME280;50636;45.596;5.258;2022-07-29T09:52:51;98860.03;;;19.20;75.84
64294;BME280;50636;45.596;5.258;2022-07-29T09:55:18;98864.28;;;18.94;74.80
64294;BME280;50636;45.596;5.258;2022-07-29T09:57:45;98863.19;;;18.90;76.42
64294;BME280;50636;45.596;5.258;2022-07-29T10:00:19;98858.75;;;18.73;75.96
64294;BME280;50636;45.596;5.258;2022-07-29T10:02:46;98866.72;;;18.73;78.00
64294;BME280;50636;45.596;5.258;2022-07-29T10:05:24;98859.47;;;18.91;79.27
64294;BME280;50636;45.596;5.258;2022-07-29T10:07:54;98859.56;;;19.01;77.10
64294;BME280;50636;45.596;5.258;2022-07-29T10:10:31;98857.75;;;19.07;77.41
64294;BME280;50636;45.596;5.258;2022-07-29T10:13:01;98859.94;;;19.10;75.96
64294;BME280;50636;45.596;5.258;2022-07-29T10:15:30;98860.75;;;19.15;77.24
64294;BME280;50636;45.596;5.258;2022-07-29T10:17:58;98856.91;;;19.28;76.95
64294;BME280;50636;45.596;5.258;2022-07-29T10:20:27;98865.47;;;19.35;77.36
64294;BME280;50636;45.596;5.258;2022-07-29T10:22:53;98855.91;;;19.40;76.81
64294;BME280;50636;45.596;5.258;2022-07-29T10:25:23;98854.94;;;19.51;77.65
64294;BME280;50636;45.596;5.258;2022-07-29T10:27:50;98849.47;;;19.68;77.20
64294;BME280;50636;45.596;5.258;2022-07-29T10:30:20;98858.69;;;19.82;76.84
64294;BME280;50636;45.596;5.258;2022-07-29T10:36:16;98846.13;;;19.78;72.93
64294;BME280;50636;45.596;5.258;2022-07-29T10:38:58;98845.63;;;19.81;73.09
64294;BME280;50636;45.596;5.258;2022-07-29T10:41:57;98838.22;;;19.93;74.31
64294;BME280;50636;45.596;5.258;2022-07-29T10:44:26;98848.75;;;20.20;73.92
64294;BME280;50636;45.596;5.258;2022-07-29T10:46:53;98838.72;;;20.38;74.30
64294;BME280;50636;45.596;5.258;2022-07-29T10:49:22;98848.41;;;20.59;74.07
64294;BME280;50636;45.596;5.258;2022-07-29T10:52:03;98839.91;;;20.67;72.89
64294;BME280;50636;45.596;5.258;2022-07-29T10:59:40;98843.47;;;21.24;72.68
64294;BME280;50636;45.596;5.258;2022-07-29T11:05:18;98847.22;;;21.74;70.87
64294;BME280;50636;45.596;5.258;2022-07-29T11:10:38;98856.47;;;22.18;69.50
64294;BME280;50636;45.596;5.258;2022-07-29T11:13:04;98840.84;;;22.51;69.74
64294;BME280;50636;45.596;5.258;2022-07-29T11:15:53;98846.22;;;22.96;68.48
64294;BME280;50636;45.596;5.258;2022-07-29T11:18:20;98841.41;;;23.37;66.48
64294;BME280;50636;45.596;5.258;2022-07-29T11:20:50;98838.88;;;23.80;65.59
64294;BME280;50636;45.596;5.258;2022-07-29T11:23:25;98839.41;;;24.30;63.94
64294;BME280;50636;45.596;5.258;2022-07-29T11:26:20;98842.19;;;24.87;63.12
64294;BME280;50636;45.596;5.258;2022-07-29T11:31:38;98820.13;;;26.58;57.53
64294;BME280;50636;45.596;5.258;2022-07-29T11:34:32;98814.13;;;27.83;53.39
64294;BME280;50636;45.596;5.258;2022-07-29T11:37:19;98819.00;;;29.86;50.13
64294;BME280;50636;45.596;5.258;2022-07-29T11:45:00;98802.63;;;32.62;40.15
64294;BME280;50636;45.596;5.258;2022-07-29T11:47:29;98808.94;;;32.54;40.46
64294;BME280;50636;45.596;5.258;2022-07-29T11:49:57;98800.19;;;32.32;39.50
64294;BME280;50636;45.596;5.258;2022-07-29T11:52:23;98796.09;;;31.89;39.27
64294;BME280;50636;45.596;5.258;2022-07-29T11:54:57;98798.25;;;31.71;38.27
64294;BME280;50636;45.596;5.258;2022-07-29T11:57:28;98796.88;;;31.77;37.38
64294;BME280;50636;45.596;5.258;2022-07-29T11:59:55;98794.78;;;32.08;37.40
64294;BME280;50636;45.596;5.258;2022-07-29T12:02:23;98799.69;;;32.42;35.45
64294;BME280;50636;45.596;5.258;2022-07-29T12:04:56;98794.47;;;32.62;34.45
64294;BME280;50636;45.596;5.258;2022-07-29T12:07:31;98798.91;;;32.42;35.74
64294;BME280;50636;45.596;5.258;2022-07-29T12:09:58;98805.91;;;32.43;34.76
64294;BME280;50636;45.596;5.258;2022-07-29T12:12:24;98804.53;;;32.61;34.36
64294;BME280;50636;45.596;5.258;2022-07-29T12:14:50;98803.97;;;32.68;34.95
64294;BME280;50636;45.596;5.258;2022-07-29T12:17:31;98795.75;;;32.80;35.00
64294;BME280;50636;45.596;5.258;2022-07-29T12:19:59;98786.47;;;33.10;34.85
64294;BME280;50636;45.596;5.258;2022-07-29T12:22:34;98783.72;;;33.70;34.42
64294;BME280;50636;45.596;5.258;2022-07-29T12:25:04;98784.91;;;34.20;33.12
64294;BME280;50636;45.596;5.258;2022-07-29T12:27:31;98791.25;;;33.92;33.22
64294;BME280;50636;45.596;5.258;2022-07-29T12:29:59;98790.66;;;33.51;32.94
64294;BME280;50636;45.596;5.258;2022-07-29T12:32:39;98783.44;;;33.59;33.19
64294;BME280;50636;45.596;5.258;2022-07-29T12:35:15;98784.56;;;34.21;32.87
64294;BME280;50636;45.596;5.258;2022-07-29T12:37:43;98784.59;;;34.41;32.24
64294;BME280;50636;45.596;5.258;2022-07-29T12:40:11;98785.53;;;34.13;31.97
64294;BME280;50636;45.596;5.258;2022-07-29T12:42:38;98779.28;;;33.17;32.77
64294;BME280;50636;45.596;5.258;2022-07-29T12:45:05;98778.44;;;32.32;33.93
64294;BME280;50636;45.596;5.258;2022-07-29T12:47:52;98766.06;;;32.47;34.27
64294;BME280;50636;45.596;5.258;2022-07-29T12:50:18;98776.81;;;32.56;32.87
64294;BME280;50636;45.596;5.258;2022-07-29T12:52:45;98767.50;;;32.16;33.66
64294;BME280;50636;45.596;5.258;2022-07-29T12:55:11;98766.75;;;32.44;32.61
64294;BME280;50636;45.596;5.258;2022-07-29T12:57:48;98765.13;;;32.15;32.37
64294;BME280;50636;45.596;5.258;2022-07-29T13:00:16;98764.41;;;31.44;33.11
64294;BME280;50636;45.596;5.258;2022-07-29T13:02:42;98765.66;;;31.01;34.31
64294;BME280;50636;45.596;5.258;2022-07-29T13:05:09;98761.72;;;30.77;35.01
64294;BME280;50636;45.596;5.258;2022-07-29T13:07:37;98766.88;;;30.70;35.67
64294;BME280;50636;45.596;5.258;2022-07-29T13:10:20;98769.91;;;30.48;36.75
64294;BME280;50636;45.596;5.258;2022-07-29T13:15:32;98760.84;;;30.22;37.74
64294;BME280;50636;45.596;5.258;2022-07-29T13:17:58;98764.06;;;30.16;37.36
64294;BME280;50636;45.596;5.258;2022-07-29T13:20:27;98763.88;;;29.91;37.60
64294;BME280;50636;45.596;5.258;2022-07-29T13:22:59;98766.34;;;29.75;38.43
64294;BME280;50636;45.596;5.258;2022-07-29T13:25:30;98754.41;;;29.67;38.94
64294;BME280;50636;45.596;5.258;2022-07-29T13:27:57;98765.13;;;30.02;38.63
64294;BME280;50636;45.596;5.258;2022-07-29T13:30:24;98762.38;;;30.32;38.33
64294;BME280;50636;45.596;5.258;2022-07-29T13:32:52;98753.13;;;30.54;38.16
64294;BME280;50636;45.596;5.258;2022-07-29T13:35:19;98747.25;;;30.73;37.42
64294;BME280;50636;45.596;5.258;2022-07-29T13:37:45;98746.63;;;30.89;37.01
64294;BME280;50636;45.596;5.258;2022-07-29T13:40:12;98748.84;;;30.86;35.80
64294;BME280;50636;45.596;5.258;2022-07-29T13:42:38;98736.88;;;30.54;36.61
64294;BME280;50636;45.596;5.258;2022-07-29T13:45:04;98733.88;;;30.35;36.19
64294;BME280;50636;45.596;5.258;2022-07-29T13:47:32;98729.44;;;30.30;36.73
64294;BME280;50636;45.596;5.258;2022-07-29T13:49:57;98736.47;;;30.64;35.42
64294;BME280;50636;45.596;5.258;2022-07-29T13:52:23;98740.84;;;30.36;35.77
64294;BME280;50636;45.596;5.258;2022-07-29T13:54:49;98749.91;;;30.10;36.43
64294;BME280;50636;45.596;5.258;2022-07-29T13:57:16;98742.41;;;29.86;35.49
64294;BME280;50636;45.596;5.258;2022-07-29T13:59:42;98734.41;;;29.60;35.69